sensor_id;sensor_type;location;lat;lon;timestamp;P1;durP1;ratioP1;P2;durP2;ratioP2
2656;SDS011;1338;48.176;11.792;2023-07-13T00:01:13;3.73;;;3.43;;
2656;SDS011;1338;48.176;11.792;2023-07-13T00:03:44;3.63;;;3.33;;
2656;SDS011;1338;48.176;11.792;2023-07-13T00:06:14;5.10;;;3.77;;
2656;SDS011;1338;48.176;11.792;2023-07-13T00:08:46;5.23;;;4.50;;
2656;SDS011;1338;48.176;11.792;2023-07-13T00:11:15;4.80;;;3.70;;
2656;SDS011;1338;48.176;11.792;2023-07-13T00:13:44;3.60;;;3.30;;
2656;SDS011;1338;48.176;11.792;2023-07-13T00:16:14;3.30;;;3.10;;
2656;SDS011;1338;48.176;11.792;2023-07-13T00:18:45;3.93;;;3.63;;
2656;SDS011;1338;48.176;11.792;2023-07-13T00:21:16;4.10;;;3.80;;
2656;SDS011;1338;48.176;11.792;2023-07-13T00:23:44;3.73;;;3.43;;
2656;SDS011;1338;48.176;11.792;2023-07-13T00:26:12;4.17;;;3.87;;
2656;SDS011;1338;48.176;11.792;2023-07-13T00:28:44;5.93;;;3.40;;
2656;SDS011;1338;48.176;11.792;2023-07-13T00:31:12;3.70;;;3.40;;
2656;SDS011;1338;48.176;11.792;2023-07-13T00:33:42;3.77;;;3.47;;
2656;SDS011;1338;48.176;11.792;2023-07-13T00:36:11;3.97;;;3.57;;
2656;SDS011;1338;48.176;11.792;2023-07-13T00:38:41;3.80;;;3.50;;
2656;SDS011;1338;48.176;11.792;2023-07-13T00:41:10;3.37;;;3.17;;
2656;SDS011;1338;48.176;11.792;2023-07-13T00:43:39;5.20;;;3.70;;
2656;SDS011;1338;48.176;11.792;2023-07-13T00:46:13;3.93;;;3.63;;
2656;SDS011;1338;48.176;11.792;2023-07-13T00:48:51;4.37;;;3.97;;
2656;SDS011;1338;48.176;11.792;2023-07-13T00:51:23;3.87;;;3.60;;
2656;SDS011;1338;48.176;11.792;2023-07-13T00:54:00;4.67;;;4.07;;
2656;SDS011;1338;48.176;11.792;2023-07-13T00:56:33;3.77;;;3.50;;
2656;SDS011;1338;48.176;11.792;2023-07-13T00:59:03;3.73;;;3.30;;
2656;SDS011;1338;48.176;11.792;2023-07-13T01:01:36;4.30;;;3.87;;
2656;SDS011;1338;48.176;11.792;2023-07-13T01:04:06;3.57;;;3.27;;
2656;SDS011;1338;48.176;11.792;2023-07-13T01:06:36;4.00;;;3.30;;
2656;SDS011;1338;48.176;11.792;2023-07-13T01:09:08;3.73;;;3.43;;
2656;SDS011;1338;48.176;11.792;2023-07-13T01:11:40;4.13;;;3.50;;
2656;SDS011;1338;48.176;11.792;2023-07-13T01:14:08;3.63;;;3.33;;
2656;SDS011;1338;48.176;11.792;2023-07-13T01:16:37;4.70;;;4.30;;
2656;SDS011;1338;48.176;11.792;2023-07-13T01:19:11;4.10;;;3.80;;
2656;SDS011;1338;48.176;11.792;2023-07-13T01:21:51;4.10;;;3.80;;
2656;SDS011;1338;48.176;11.792;2023-07-13T01:24:20;3.50;;;3.20;;
2656;SDS011;1338;48.176;11.792;2023-07-13T01:26:48;4.17;;;3.77;;
2656;SDS011;1338;48.176;11.792;2023-07-13T01:29:17;4.17;;;3.80;;
2656;SDS011;1338;48.176;11.792;2023-07-13T01:31:45;3.53;;;3.23;;
2656;SDS011;1338;48.176;11.792;2023-07-13T01:34:14;3.53;;;3.23;;
2656;SDS011;1338;48.176;11.792;2023-07-13T01:36:43;3.90;;;3.60;;
2656;SDS011;1338;48.176;11.792;2023-07-13T01:39:13;3.57;;;3.27;;
2656;SDS011;1338;48.176;11.792;2023-07-13T01:41:43;4.20;;;3.80;;
2656;SDS011;1338;48.176;11.792;2023-07-13T01:44:12;3.80;;;3.50;;
2656;SDS011;1338;48.176;11.792;2023-07-13T01:46:40;4.37;;;3.97;;
2656;SDS011;1338;48.176;11.792;2023-07-13T01:49:10;6.00;;;3.90;;
2656;SDS011;1338;48.176;11.792;2023-07-13T01:51:38;3.20;;;3.00;;
2656;SDS011;1338;48.176;11.792;2023-07-13T01:54:07;3.30;;;3.00;;
2656;SDS011;1338;48.176;11.792;2023-07-13T01:56:38;4.23;;;3.87;;
2656;SDS011;1338;48.176;11.792;2023-07-13T01:59:08;4.07;;;3.77;;
2656;SDS011;1338;48.176;11.792;2023-07-13T02:01:37;4.13;;;3.80;;
2656;SDS011;1338;48.176;11.792;2023-07-13T02:04:06;4.10;;;3.80;;
2656;SDS011;1338;48.176;11.792;2023-07-13T02:06:36;3.50;;;3.20;;
2656;SDS011;1338;48.176;11.792;2023-07-13T02:09:04;3.90;;;3.60;;
2656;SDS011;1338;48.176;11.792;2023-07-13T02:11:35;5.73;;;3.70;;
2656;SDS011;1338;48.176;11.792;2023-07-13T02:14:06;3.90;;;3.60;;
2656;SDS011;1338;48.176;11.792;2023-07-13T02:16:35;3.90;;;3.47;;
2656;SDS011;1338;48.176;11.792;2023-07-13T02:19:04;3.90;;;3.60;;
2656;SDS011;1338;48.176;11.792;2023-07-13T02:21:33;3.60;;;3.30;;
2656;SDS011;1338;48.176;11.792;2023-07-13T02:24:01;4.40;;;3.30;;
2656;SDS011;1338;48.176;11.792;2023-07-13T02:26:31;3.70;;;3.40;;
2656;SDS011;1338;48.176;11.792;2023-07-13T02:29:00;4.37;;;4.03;;
2656;SDS011;1338;48.176;11.792;2023-07-13T02:31:30;4.50;;;3.57;;
2656;SDS011;1338;48.176;11.792;2023-07-13T02:33:59;4.30;;;3.60;;
2656;SDS011;1338;48.176;11.792;2023-07-13T02:36:29;4.90;;;4.50;;
2656;SDS011;1338;48.176;11.792;2023-07-13T02:39:00;4.40;;;4.00;;
2656;SDS011;1338;48.176;11.792;2023-07-13T02:41:29;4.30;;;3.93;;
2656;SDS011;1338;48.176;11.792;2023-07-13T02:43:57;4.60;;;3.73;;
2656;SDS011;1338;48.176;11.792;2023-07-13T02:46:32;4.10;;;3.80;;
2656;SDS011;1338;48.176;11.792;2023-07-13T02:49:02;4.20;;;3.80;;
2656;SDS011;1338;48.176;11.792;2023-07-13T02:51:31;4.17;;;3.80;;
2656;SDS011;1338;48.176;11.792;2023-07-13T02:54:01;4.40;;;4.00;;
2656;SDS011;1338;48.176;11.792;2023-07-13T02:56:31;4.27;;;3.87;;
2656;SDS011;1338;48.176;11.792;2023-07-13T02:59:00;3.90;;;3.53;;
2656;SDS011;1338;48.176;11.792;2023-07-13T03:01:29;5.63;;;4.50;;
2656;SDS011;1338;48.176;11.792;2023-07-13T03:04:00;4.70;;;4.20;;
2656;SDS011;1338;48.176;11.792;2023-07-13T03:06:33;4.10;;;3.80;;
2656;SDS011;1338;48.176;11.792;2023-07-13T03:09:03;6.03;;;5.57;;
2656;SDS011;1338;48.176;11.792;2023-07-13T03:11:34;5.10;;;4.70;;
2656;SDS011;1338;48.176;11.792;2023-07-13T03:14:20;5.17;;;4.67;;
2656;SDS011;1338;48.176;11.792;2023-07-13T03:16:50;5.60;;;5.10;;
2656;SDS011;1338;48.176;11.792;2023-07-13T03:19:23;5.30;;;4.90;;
2656;SDS011;1338;48.176;11.792;2023-07-13T03:21:52;5.50;;;5.00;;
2656;SDS011;1338;48.176;11.792;2023-07-13T03:24:20;5.60;;;5.13;;
2656;SDS011;1338;48.176;11.792;2023-07-13T03:26:51;5.27;;;4.87;;
2656;SDS011;1338;48.176;11.792;2023-07-13T03:29:21;5.97;;;5.40;;
2656;SDS011;1338;48.176;11.792;2023-07-13T03:31:51;7.00;;;6.23;;
2656;SDS011;1338;48.176;11.792;2023-07-13T03:34:23;5.30;;;4.80;;
2656;SDS011;1338;48.176;11.792;2023-07-13T03:36:53;5.03;;;4.57;;
2656;SDS011;1338;48.176;11.792;2023-07-13T03:39:22;5.40;;;5.00;;
2656;SDS011;1338;48.176;11.792;2023-07-13T03:41:54;6.27;;;5.77;;
2656;SDS011;1338;48.176;11.792;2023-07-13T03:44:22;6.10;;;5.50;;
2656;SDS011;1338;48.176;11.792;2023-07-13T03:46:54;5.80;;;5.20;;
2656;SDS011;1338;48.176;11.792;2023-07-13T03:49:24;6.00;;;5.40;;
2656;SDS011;1338;48.176;11.792;2023-07-13T03:51:53;5.47;;;4.97;;
2656;SDS011;1338;48.176;11.792;2023-07-13T03:54:22;6.57;;;5.03;;
2656;SDS011;1338;48.176;11.792;2023-07-13T03:56:51;5.63;;;4.80;;
2656;SDS011;1338;48.176;11.792;2023-07-13T03:59:21;5.77;;;5.13;;
2656;SDS011;1338;48.176;11.792;2023-07-13T04:01:50;6.00;;;5.47;;
2656;SDS011;1338;48.176;11.792;2023-07-13T04:04:18;5.87;;;5.27;;
2656;SDS011;1338;48.176;11.792;2023-07-13T04:06:49;6.10;;;5.27;;
2656;SDS011;1338;48.176;11.792;2023-07-13T04:09:19;6.70;;;4.53;;
2656;SDS011;1338;48.176;11.792;2023-07-13T04:11:49;5.50;;;5.10;;
2656;SDS011;1338;48.176;11.792;2023-07-13T04:14:17;5.60;;;5.10;;
2656;SDS011;1338;48.176;11.792;2023-07-13T04:16:46;4.53;;;4.13;;
2656;SDS011;1338;48.176;11.792;2023-07-13T04:19:16;4.90;;;4.50;;
2656;SDS011;1338;48.176;11.792;2023-07-13T04:21:45;5.47;;;5.00;;
2656;SDS011;1338;48.176;11.792;2023-07-13T04:24:15;5.13;;;4.73;;
2656;SDS011;1338;48.176;11.792;2023-07-13T04:26:44;5.40;;;4.90;;
2656;SDS011;1338;48.176;11.792;2023-07-13T04:29:12;5.23;;;4.83;;
2656;SDS011;1338;48.176;11.792;2023-07-13T04:31:41;5.40;;;4.90;;
2656;SDS011;1338;48.176;11.792;2023-07-13T04:34:10;5.80;;;4.87;;
2656;SDS011;1338;48.176;11.792;2023-07-13T04:36:39;4.97;;;4.47;;
2656;SDS011;1338;48.176;11.792;2023-07-13T04:39:08;6.23;;;5.33;;
2656;SDS011;1338;48.176;11.792;2023-07-13T04:41:39;6.43;;;4.83;;
2656;SDS011;1338;48.176;11.792;2023-07-13T04:44:08;5.50;;;4.67;;
2656;SDS011;1338;48.176;11.792;2023-07-13T04:46:38;5.17;;;4.20;;
2656;SDS011;1338;48.176;11.792;2023-07-13T04:49:10;5.10;;;4.60;;
2656;SDS011;1338;48.176;11.792;2023-07-13T04:51:38;7.93;;;5.73;;
2656;SDS011;1338;48.176;11.792;2023-07-13T04:54:07;5.30;;;4.80;;
2656;SDS011;1338;48.176;11.792;2023-07-13T04:56:35;4.83;;;4.40;;
2656;SDS011;1338;48.176;11.792;2023-07-13T04:59:06;6.30;;;4.00;;
2656;SDS011;1338;48.176;11.792;2023-07-13T05:01:35;4.70;;;4.27;;
2656;SDS011;1338;48.176;11.792;2023-07-13T05:04:03;4.90;;;4.50;;
2656;SDS011;1338;48.176;11.792;2023-07-13T05:06:32;4.43;;;3.73;;
2656;SDS011;1338;48.176;11.792;2023-07-13T05:09:01;4.80;;;4.40;;
2656;SDS011;1338;48.176;11.792;2023-07-13T05:11:29;7.00;;;4.70;;
2656;SDS011;1338;48.176;11.792;2023-07-13T05:13:58;4.57;;;4.17;;
2656;SDS011;1338;48.176;11.792;2023-07-13T05:16:29;4.83;;;4.43;;
2656;SDS011;1338;48.176;11.792;2023-07-13T05:18:58;4.80;;;4.33;;
2656;SDS011;1338;48.176;11.792;2023-07-13T05:21:32;5.63;;;5.13;;
2656;SDS011;1338;48.176;11.792;2023-07-13T05:24:01;4.90;;;4.50;;
2656;SDS011;1338;48.176;11.792;2023-07-13T05:26:50;5.43;;;4.10;;
2656;SDS011;1338;48.176;11.792;2023-07-13T05:29:19;4.70;;;4.30;;
2656;SDS011;1338;48.176;11.792;2023-07-13T05:31:50;4.97;;;4.07;;
2656;SDS011;1338;48.176;11.792;2023-07-13T05:34:19;4.70;;;4.30;;
2656;SDS011;1338;48.176;11.792;2023-07-13T05:36:48;6.60;;;4.77;;
2656;SDS011;1338;48.176;11.792;2023-07-13T05:39:17;4.33;;;4.03;;
2656;SDS011;1338;48.176;11.792;2023-07-13T05:41:46;4.37;;;3.97;;
2656;SDS011;1338;48.176;11.792;2023-07-13T05:44:15;4.63;;;4.17;;
2656;SDS011;1338;48.176;11.792;2023-07-13T05:46:43;4.70;;;4.30;;
2656;SDS011;1338;48.176;11.792;2023-07-13T05:49:13;4.40;;;4.00;;
2656;SDS011;1338;48.176;11.792;2023-07-13T05:51:42;4.80;;;4.23;;
2656;SDS011;1338;48.176;11.792;2023-07-13T05:54:10;4.63;;;4.23;;
2656;SDS011;1338;48.176;11.792;2023-07-13T05:56:38;4.23;;;3.93;;
2656;SDS011;1338;48.176;11.792;2023-07-13T05:59:07;5.80;;;4.87;;
2656;SDS011;1338;48.176;11.792;2023-07-13T06:01:36;4.20;;;3.80;;
2656;SDS011;1338;48.176;11.792;2023-07-13T06:04:09;4.83;;;4.10;;
2656;SDS011;1338;48.176;11.792;2023-07-13T06:06:40;4.80;;;4.30;;
2656;SDS011;1338;48.176;11.792;2023-07-13T06:09:09;5.10;;;4.60;;
2656;SDS011;1338;48.176;11.792;2023-07-13T06:11:37;4.23;;;3.93;;
2656;SDS011;1338;48.176;11.792;2023-07-13T06:14:06;4.90;;;4.50;;
2656;SDS011;1338;48.176;11.792;2023-07-13T06:16:35;6.00;;;4.43;;
2656;SDS011;1338;48.176;11.792;2023-07-13T06:19:05;5.27;;;4.73;;
2656;SDS011;1338;48.176;11.792;2023-07-13T06:21:34;5.30;;;4.80;;
2656;SDS011;1338;48.176;11.792;2023-07-13T06:24:05;4.10;;;3.80;;
2656;SDS011;1338;48.176;11.792;2023-07-13T06:26:34;5.40;;;4.30;;
2656;SDS011;1338;48.176;11.792;2023-07-13T06:29:03;4.50;;;4.10;;
2656;SDS011;1338;48.176;11.792;2023-07-13T06:31:32;4.20;;;3.80;;
2656;SDS011;1338;48.176;11.792;2023-07-13T06:34:01;4.73;;;4.30;;
2656;SDS011;1338;48.176;11.792;2023-07-13T06:36:30;4.43;;;4.10;;
2656;SDS011;1338;48.176;11.792;2023-07-13T06:38:58;4.57;;;4.17;;
2656;SDS011;1338;48.176;11.792;2023-07-13T06:41:28;6.30;;;4.73;;
2656;SDS011;1338;48.176;11.792;2023-07-13T06:43:57;4.53;;;3.97;;
2656;SDS011;1338;48.176;11.792;2023-07-13T06:46:25;4.03;;;3.73;;
2656;SDS011;1338;48.176;11.792;2023-07-13T06:48:56;4.57;;;4.17;;
2656;SDS011;1338;48.176;11.792;2023-07-13T06:51:25;5.33;;;4.83;;
2656;SDS011;1338;48.176;11.792;2023-07-13T06:53:54;4.10;;;3.80;;
2656;SDS011;1338;48.176;11.792;2023-07-13T06:56:22;5.70;;;4.37;;
2656;SDS011;1338;48.176;11.792;2023-07-13T06:58:52;4.27;;;3.87;;
2656;SDS011;1338;48.176;11.792;2023-07-13T07:01:21;3.70;;;3.40;;
2656;SDS011;1338;48.176;11.792;2023-07-13T07:03:52;4.30;;;3.90;;
2656;SDS011;1338;48.176;11.792;2023-07-13T07:06:22;4.57;;;4.17;;
2656;SDS011;1338;48.176;11.792;2023-07-13T07:08:51;4.10;;;3.77;;
2656;SDS011;1338;48.176;11.792;2023-07-13T07:11:21;4.23;;;3.93;;
2656;SDS011;1338;48.176;11.792;2023-07-13T07:13:53;3.97;;;3.67;;
2656;SDS011;1338;48.176;11.792;2023-07-13T07:16:22;4.87;;;4.47;;
2656;SDS011;1338;48.176;11.792;2023-07-13T07:18:53;4.20;;;3.80;;
2656;SDS011;1338;48.176;11.792;2023-07-13T07:21:21;4.60;;;3.77;;
2656;SDS011;1338;48.176;11.792;2023-07-13T07:23:51;4.47;;;4.03;;
2656;SDS011;1338;48.176;11.792;2023-07-13T07:26:20;4.00;;;3.50;;
2656;SDS011;1338;48.176;11.792;2023-07-13T07:28:54;4.07;;;3.77;;
2656;SDS011;1338;48.176;11.792;2023-07-13T07:31:26;4.03;;;3.73;;
2656;SDS011;1338;48.176;11.792;2023-07-13T07:33:58;4.30;;;3.90;;
2656;SDS011;1338;48.176;11.792;2023-07-13T07:36:26;4.43;;;4.03;;
2656;SDS011;1338;48.176;11.792;2023-07-13T07:38:58;4.40;;;4.03;;
2656;SDS011;1338;48.176;11.792;2023-07-13T07:41:27;4.03;;;3.73;;
2656;SDS011;1338;48.176;11.792;2023-07-13T07:44:00;4.77;;;4.37;;
2656;SDS011;1338;48.176;11.792;2023-07-13T07:46:30;4.37;;;4.00;;
2656;SDS011;1338;48.176;11.792;2023-07-13T07:49:00;5.53;;;3.70;;
2656;SDS011;1338;48.176;11.792;2023-07-13T07:51:29;4.83;;;3.97;;
2656;SDS011;1338;48.176;11.792;2023-07-13T07:53:58;4.73;;;3.93;;
2656;SDS011;1338;48.176;11.792;2023-07-13T07:56:27;4.13;;;3.83;;
2656;SDS011;1338;48.176;11.792;2023-07-13T07:58:58;4.37;;;3.97;;
2656;SDS011;1338;48.176;11.792;2023-07-13T08:01:31;4.37;;;3.73;;
2656;SDS011;1338;48.176;11.792;2023-07-13T08:04:03;3.77;;;3.47;;
2656;SDS011;1338;48.176;11.792;2023-07-13T08:06:35;4.03;;;3.73;;
2656;SDS011;1338;48.176;11.792;2023-07-13T08:09:06;3.90;;;3.40;;
2656;SDS011;1338;48.176;11.792;2023-07-13T08:11:35;4.13;;;3.77;;
2656;SDS011;1338;48.176;11.792;2023-07-13T08:14:09;3.40;;;3.10;;
2656;SDS011;1338;48.176;11.792;2023-07-13T08:16:38;3.73;;;3.43;;
2656;SDS011;1338;48.176;11.792;2023-07-13T08:19:06;3.67;;;3.40;;
2656;SDS011;1338;48.176;11.792;2023-07-13T08:21:36;4.00;;;3.13;;
2656;SDS011;1338;48.176;11.792;2023-07-13T08:24:05;3.50;;;3.20;;
2656;SDS011;1338;48.176;11.792;2023-07-13T08:26:34;4.50;;;4.07;;
2656;SDS011;1338;48.176;11.792;2023-07-13T08:29:04;4.27;;;3.30;;
2656;SDS011;1338;48.176;11.792;2023-07-13T08:31:35;3.37;;;3.17;;
2656;SDS011;1338;48.176;11.792;2023-07-13T08:34:03;3.47;;;3.20;;
2656;SDS011;1338;48.176;11.792;2023-07-13T08:36:32;3.90;;;3.60;;
2656;SDS011;1338;48.176;11.792;2023-07-13T08:39:01;4.60;;;3.70;;
2656;SDS011;1338;48.176;11.792;2023-07-13T08:41:29;3.73;;;3.17;;
2656;SDS011;1338;48.176;11.792;2023-07-13T08:43:58;3.63;;;3.33;;
2656;SDS011;1338;48.176;11.792;2023-07-13T08:46:31;4.23;;;3.60;;
2656;SDS011;1338;48.176;11.792;2023-07-13T08:49:05;4.00;;;3.60;;
2656;SDS011;1338;48.176;11.792;2023-07-13T08:51:39;3.57;;;3.27;;
2656;SDS011;1338;48.176;11.792;2023-07-13T08:54:16;3.80;;;3.50;;
2656;SDS011;1338;48.176;11.792;2023-07-13T08:56:48;3.50;;;3.20;;
2656;SDS011;1338;48.176;11.792;2023-07-13T08:59:21;4.07;;;3.73;;
2656;SDS011;1338;48.176;11.792;2023-07-13T09:01:58;3.47;;;3.27;;
2656;SDS011;1338;48.176;11.792;2023-07-13T09:04:39;3.63;;;3.37;;
2656;SDS011;1338;48.176;11.792;2023-07-13T09:07:14;3.77;;;3.47;;
2656;SDS011;1338;48.176;11.792;2023-07-13T09:09:54;4.33;;;3.30;;
2656;SDS011;1338;48.176;11.792;2023-07-13T09:12:33;3.30;;;3.00;;
2656;SDS011;1338;48.176;11.792;2023-07-13T09:15:17;3.03;;;2.70;;
2656;SDS011;1338;48.176;11.792;2023-07-13T09:17:55;3.00;;;2.70;;
2656;SDS011;1338;48.176;11.792;2023-07-13T09:20:30;3.80;;;3.40;;
2656;SDS011;1338;48.176;11.792;2023-07-13T09:23:09;2.93;;;2.63;;
2656;SDS011;1338;48.176;11.792;2023-07-13T09:25:40;3.00;;;2.80;;
2656;SDS011;1338;48.176;11.792;2023-07-13T09:28:15;2.80;;;2.60;;
2656;SDS011;1338;48.176;11.792;2023-07-13T09:30:49;2.80;;;2.60;;
2656;SDS011;1338;48.176;11.792;2023-07-13T09:33:22;3.83;;;2.70;;
2656;SDS011;1338;48.176;11.792;2023-07-13T09:35:51;3.20;;;2.90;;
2656;SDS011;1338;48.176;11.792;2023-07-13T09:38:21;2.73;;;2.53;;
2656;SDS011;1338;48.176;11.792;2023-07-13T09:40:56;2.93;;;2.73;;
2656;SDS011;1338;48.176;11.792;2023-07-13T09:43:32;2.87;;;2.57;;
2656;SDS011;1338;48.176;11.792;2023-07-13T09:46:00;2.73;;;2.53;;
2656;SDS011;1338;48.176;11.792;2023-07-13T09:48:34;3.13;;;2.93;;
2656;SDS011;1338;48.176;11.792;2023-07-13T09:51:07;2.93;;;2.73;;
2656;SDS011;1338;48.176;11.792;2023-07-13T09:53:41;2.63;;;2.43;;
2656;SDS011;1338;48.176;11.792;2023-07-13T09:56:20;3.03;;;2.83;;
2656;SDS011;1338;48.176;11.792;2023-07-13T09:58:51;3.07;;;2.60;;
2656;SDS011;1338;48.176;11.792;2023-07-13T10:01:31;2.80;;;2.60;;
2656;SDS011;1338;48.176;11.792;2023-07-13T10:04:05;2.90;;;2.20;;
2656;SDS011;1338;48.176;11.792;2023-07-13T10:06:40;2.90;;;2.70;;
2656;SDS011;1338;48.176;11.792;2023-07-13T10:09:13;2.80;;;2.60;;
2656;SDS011;1338;48.176;11.792;2023-07-13T10:11:44;3.40;;;2.60;;
2656;SDS011;1338;48.176;11.792;2023-07-13T10:14:15;2.80;;;2.60;;
2656;SDS011;1338;48.176;11.792;2023-07-13T10:16:46;2.83;;;2.63;;
2656;SDS011;1338;48.176;11.792;2023-07-13T10:19:31;2.67;;;2.47;;
2656;SDS011;1338;48.176;11.792;2023-07-13T10:22:09;2.60;;;2.40;;
2656;SDS011;1338;48.176;11.792;2023-07-13T10:24:44;2.77;;;2.57;;
2656;SDS011;1338;48.176;11.792;2023-07-13T10:27:15;2.30;;;2.10;;
2656;SDS011;1338;48.176;11.792;2023-07-13T10:29:46;2.33;;;2.23;;
2656;SDS011;1338;48.176;11.792;2023-07-13T10:32:17;2.53;;;2.37;;
2656;SDS011;1338;48.176;11.792;2023-07-13T10:34:51;2.53;;;2.43;;
2656;SDS011;1338;48.176;11.792;2023-07-13T10:37:23;2.50;;;2.30;;
2656;SDS011;1338;48.176;11.792;2023-07-13T10:39:56;3.00;;;2.70;;
2656;SDS011;1338;48.176;11.792;2023-07-13T10:42:27;3.87;;;2.50;;
2656;SDS011;1338;48.176;11.792;2023-07-13T10:44:58;2.80;;;2.60;;
2656;SDS011;1338;48.176;11.792;2023-07-13T10:47:27;2.80;;;2.60;;
2656;SDS011;1338;48.176;11.792;2023-07-13T10:49:59;3.47;;;2.80;;
2656;SDS011;1338;48.176;11.792;2023-07-13T10:52:42;3.10;;;2.80;;
2656;SDS011;1338;48.176;11.792;2023-07-13T10:58:13;3.50;;;2.30;;
2656;SDS011;1338;48.176;11.792;2023-07-13T11:00:48;2.67;;;2.47;;
2656;SDS011;1338;48.176;11.792;2023-07-13T11:03:21;3.07;;;2.63;;
2656;SDS011;1338;48.176;11.792;2023-07-13T11:06:04;2.70;;;2.50;;
2656;SDS011;1338;48.176;11.792;2023-07-13T11:08:37;3.77;;;3.37;;
2656;SDS011;1338;48.176;11.792;2023-07-13T11:11:33;3.30;;;3.00;;
2656;SDS011;1338;48.176;11.792;2023-07-13T11:14:05;3.43;;;3.13;;
2656;SDS011;1338;48.176;11.792;2023-07-13T11:16:54;3.13;;;2.80;;
2656;SDS011;1338;48.176;11.792;2023-07-13T11:19:24;3.03;;;2.80;;
2656;SDS011;1338;48.176;11.792;2023-07-13T11:22:14;3.00;;;2.70;;
2656;SDS011;1338;48.176;11.792;2023-07-13T11:24:56;3.03;;;2.60;;
2656;SDS011;1338;48.176;11.792;2023-07-13T11:27:33;3.13;;;2.90;;
2656;SDS011;1338;48.176;11.792;2023-07-13T11:30:13;2.63;;;2.43;;
2656;SDS011;1338;48.176;11.792;2023-07-13T11:32:51;3.47;;;2.80;;
2656;SDS011;1338;48.176;11.792;2023-07-13T11:35:33;2.90;;;2.70;;
2656;SDS011;1338;48.176;11.792;2023-07-13T11:38:10;3.80;;;3.17;;
2656;SDS011;1338;48.176;11.792;2023-07-13T11:40:44;3.50;;;3.20;;
2656;SDS011;1338;48.176;11.792;2023-07-13T11:43:21;3.63;;;3.40;;
2656;SDS011;1338;48.176;11.792;2023-07-13T11:45:51;3.37;;;3.07;;
2656;SDS011;1338;48.176;11.792;2023-07-13T11:48:20;3.17;;;2.97;;
2656;SDS011;1338;48.176;11.792;2023-07-13T11:51:00;2.37;;;2.27;;
2656;SDS011;1338;48.176;11.792;2023-07-13T11:53:34;3.37;;;3.07;;
2656;SDS011;1338;48.176;11.792;2023-07-13T11:56:09;2.87;;;2.67;;
2656;SDS011;1338;48.176;11.792;2023-07-13T11:58:38;2.57;;;2.37;;
2656;SDS011;1338;48.176;11.792;2023-07-13T12:01:10;3.20;;;3.00;;
2656;SDS011;1338;48.176;11.792;2023-07-13T12:03:46;3.50;;;2.80;;
2656;SDS011;1338;48.176;11.792;2023-07-13T12:06:25;2.90;;;2.70;;
2656;SDS011;1338;48.176;11.792;2023-07-13T12:08:57;3.77;;;3.10;;
2656;SDS011;1338;48.176;11.792;2023-07-13T12:11:27;3.07;;;2.87;;
2656;SDS011;1338;48.176;11.792;2023-07-13T12:13:56;3.00;;;2.80;;
2656;SDS011;1338;48.176;11.792;2023-07-13T12:16:26;2.80;;;2.47;;
2656;SDS011;1338;48.176;11.792;2023-07-13T12:19:00;3.40;;;3.07;;
2656;SDS011;1338;48.176;11.792;2023-07-13T12:21:30;2.80;;;2.60;;
2656;SDS011;1338;48.176;11.792;2023-07-13T12:24:04;3.07;;;2.77;;
2656;SDS011;1338;48.176;11.792;2023-07-13T12:26:42;2.60;;;2.40;;
2656;SDS011;1338;48.176;11.792;2023-07-13T12:29:13;3.53;;;3.23;;
2656;SDS011;1338;48.176;11.792;2023-07-13T12:31:46;2.73;;;2.53;;
2656;SDS011;1338;48.176;11.792;2023-07-13T12:34:16;5.00;;;4.53;;
2656;SDS011;1338;48.176;11.792;2023-07-13T12:36:47;4.40;;;2.90;;
2656;SDS011;1338;48.176;11.792;2023-07-13T12:39:20;3.03;;;2.83;;
2656;SDS011;1338;48.176;11.792;2023-07-13T12:41:51;3.20;;;2.97;;
2656;SDS011;1338;48.176;11.792;2023-07-13T12:44:23;2.90;;;2.70;;
2656;SDS011;1338;48.176;11.792;2023-07-13T12:46:56;3.23;;;2.97;;
2656;SDS011;1338;48.176;11.792;2023-07-13T12:49:28;3.13;;;2.93;;
2656;SDS011;1338;48.176;11.792;2023-07-13T12:52:03;3.33;;;3.03;;
2656;SDS011;1338;48.176;11.792;2023-07-13T12:54:51;3.67;;;3.30;;
2656;SDS011;1338;48.176;11.792;2023-07-13T12:57:32;2.90;;;2.70;;
2656;SDS011;1338;48.176;11.792;2023-07-13T13:00:10;3.10;;;2.90;;
2656;SDS011;1338;48.176;11.792;2023-07-13T13:02:49;3.30;;;3.10;;
2656;SDS011;1338;48.176;11.792;2023-07-13T13:05:25;3.30;;;3.10;;
2656;SDS011;1338;48.176;11.792;2023-07-13T13:07:55;2.93;;;2.73;;
2656;SDS011;1338;48.176;11.792;2023-07-13T13:10:25;5.07;;;3.40;;
2656;SDS011;1338;48.176;11.792;2023-07-13T13:12:53;3.50;;;3.20;;
2656;SDS011;1338;48.176;11.792;2023-07-13T13:15:22;3.40;;;3.10;;
2656;SDS011;1338;48.176;11.792;2023-07-13T13:17:51;2.90;;;2.70;;
2656;SDS011;1338;48.176;11.792;2023-07-13T13:20:20;4.73;;;4.33;;
2656;SDS011;1338;48.176;11.792;2023-07-13T13:22:52;3.03;;;2.83;;
2656;SDS011;1338;48.176;11.792;2023-07-13T13:25:21;3.20;;;3.00;;
2656;SDS011;1338;48.176;11.792;2023-07-13T13:27:51;4.10;;;2.90;;
2656;SDS011;1338;48.176;11.792;2023-07-13T13:30:20;3.10;;;2.83;;
2656;SDS011;1338;48.176;11.792;2023-07-13T13:32:50;3.13;;;2.90;;
2656;SDS011;1338;48.176;11.792;2023-07-13T13:35:20;3.30;;;3.00;;
2656;SDS011;1338;48.176;11.792;2023-07-13T13:37:49;3.23;;;3.00;;
2656;SDS011;1338;48.176;11.792;2023-07-13T13:40:21;3.13;;;2.93;;
2656;SDS011;1338;48.176;11.792;2023-07-13T13:42:52;3.60;;;3.30;;
2656;SDS011;1338;48.176;11.792;2023-07-13T13:45:24;3.07;;;2.87;;
2656;SDS011;1338;48.176;11.792;2023-07-13T13:47:53;3.10;;;2.90;;
2656;SDS011;1338;48.176;11.792;2023-07-13T13:50:23;2.73;;;2.57;;
2656;SDS011;1338;48.176;11.792;2023-07-13T13:52:52;3.60;;;3.00;;
2656;SDS011;1338;48.176;11.792;2023-07-13T13:55:21;3.50;;;2.80;;
2656;SDS011;1338;48.176;11.792;2023-07-13T13:57:52;2.90;;;2.70;;
2656;SDS011;1338;48.176;11.792;2023-07-13T14:00:20;2.73;;;2.53;;
2656;SDS011;1338;48.176;11.792;2023-07-13T14:02:50;2.93;;;2.73;;
2656;SDS011;1338;48.176;11.792;2023-07-13T14:05:22;3.53;;;3.23;;
2656;SDS011;1338;48.176;11.792;2023-07-13T14:07:53;3.70;;;3.30;;
2656;SDS011;1338;48.176;11.792;2023-07-13T14:10:23;3.07;;;2.87;;
2656;SDS011;1338;48.176;11.792;2023-07-13T14:12:55;4.77;;;3.20;;
2656;SDS011;1338;48.176;11.792;2023-07-13T14:15:26;3.03;;;2.83;;
2656;SDS011;1338;48.176;11.792;2023-07-13T14:17:57;2.60;;;2.40;;
2656;SDS011;1338;48.176;11.792;2023-07-13T14:20:26;3.03;;;2.83;;
2656;SDS011;1338;48.176;11.792;2023-07-13T14:22:56;2.50;;;2.30;;
2656;SDS011;1338;48.176;11.792;2023-07-13T14:25:25;2.90;;;2.70;;
2656;SDS011;1338;48.176;11.792;2023-07-13T14:27:58;3.20;;;2.90;;
2656;SDS011;1338;48.176;11.792;2023-07-13T14:30:34;3.13;;;2.80;;
2656;SDS011;1338;48.176;11.792;2023-07-13T14:33:04;4.23;;;3.20;;
2656;SDS011;1338;48.176;11.792;2023-07-13T14:35:36;2.90;;;2.70;;
2656;SDS011;1338;48.176;11.792;2023-07-13T14:38:07;3.00;;;2.80;;
2656;SDS011;1338;48.176;11.792;2023-07-13T14:40:39;3.30;;;2.60;;
2656;SDS011;1338;48.176;11.792;2023-07-13T14:43:14;2.70;;;2.50;;
2656;SDS011;1338;48.176;11.792;2023-07-13T14:45:44;2.90;;;2.70;;
2656;SDS011;1338;48.176;11.792;2023-07-13T14:48:16;2.60;;;2.40;;
2656;SDS011;1338;48.176;11.792;2023-07-13T14:50:46;3.10;;;2.80;;
2656;SDS011;1338;48.176;11.792;2023-07-13T14:53:18;2.70;;;2.50;;
2656;SDS011;1338;48.176;11.792;2023-07-13T14:55:47;2.67;;;2.47;;
2656;SDS011;1338;48.176;11.792;2023-07-13T14:58:17;2.90;;;2.70;;
2656;SDS011;1338;48.176;11.792;2023-07-13T15:00:46;3.13;;;2.93;;
2656;SDS011;1338;48.176;11.792;2023-07-13T15:03:16;3.13;;;2.80;;
2656;SDS011;1338;48.176;11.792;2023-07-13T15:05:49;2.90;;;2.70;;
2656;SDS011;1338;48.176;11.792;2023-07-13T15:08:19;2.70;;;2.50;;
2656;SDS011;1338;48.176;11.792;2023-07-13T15:10:48;3.27;;;2.97;;
2656;SDS011;1338;48.176;11.792;2023-07-13T15:13:20;2.70;;;2.50;;
2656;SDS011;1338;48.176;11.792;2023-07-13T15:15:50;3.30;;;3.00;;
2656;SDS011;1338;48.176;11.792;2023-07-13T15:18:20;3.00;;;2.80;;
2656;SDS011;1338;48.176;11.792;2023-07-13T15:20:51;3.30;;;3.10;;
2656;SDS011;1338;48.176;11.792;2023-07-13T15:23:22;2.93;;;2.73;;
2656;SDS011;1338;48.176;11.792;2023-07-13T15:25:52;3.03;;;2.83;;
2656;SDS011;1338;48.176;11.792;2023-07-13T15:28:23;3.77;;;3.40;;